KNYG/NYG METAR and TAF weather

Enter ICAO airport designator
Station Type Date Time Source
KNYG METAR 2021/05/15 01:56 UTC NOAA

KNYG 150156Z AUTO 28008KT 10SM CLR 13/08 A3025 RMK AO2 SLP244 T01330083


Station Type Date Time Source
KNYG Decoded METAR 2021/05/15 01:56 UTC NOAA

QUANTICO MARINE CORPS AIRFAC, VA, United States (KNYG) 38-30N 077-18W 3M
May 14, 2021 - 09:56 PM EDT / 2021.05.15 0156 UTC
Wind: from the W (280 degrees) at 9 MPH (8 KT):0
Visibility: 10 mile(s):0
Sky conditions: clear
Temperature: 55.9 F (13.3 C)
Dew Point: 46.9 F (8.3 C)
Relative Humidity: 71%
Pressure (altimeter): 30.25 in. Hg (1024 hPa)
ob: KNYG 150156Z AUTO 28008KT 10SM CLR 13/08 A3025 RMK AO2 SLP244 T01330083
cycle: 2

Station Type Date Time Source
KNYG TAF 2021/05/14 21:15 UTC NOAA

TAF KNYG 1421/1521 VRB06KT 9999 SKC QNH3021INS
BECMG 1518/1520 VRB06KT 9999 SCT100 QNH3022INS T07/1510Z T23/1519Z LAST NO
AMDS AFT 1421/ NEXT 1515

Example: see airport list